createdAt,value
2023-01-10T00:03:34.316Z,3.50
2023-01-10T00:08:39.718Z,3.40
2023-01-10T00:13:44.947Z,3.40
2023-01-10T00:18:50.617Z,3.30
2023-01-10T00:23:57.548Z,3.30
2023-01-10T00:29:02.958Z,3.20
2023-01-10T00:34:08.292Z,3.20
2023-01-10T00:39:13.811Z,3.30
2023-01-10T00:44:19.352Z,3.30
2023-01-10T00:49:24.660Z,3.40
2023-01-10T00:54:30.080Z,3.40
2023-01-10T00:59:35.458Z,3.40
2023-01-10T01:04:40.797Z,3.40
2023-01-10T01:10:05.492Z,3.50
2023-01-10T01:15:11.814Z,3.70
2023-01-10T01:20:18.956Z,3.80
2023-01-10T01:25:24.335Z,3.90
2023-01-10T01:30:29.641Z,3.90
2023-01-10T01:35:34.936Z,4.00
2023-01-10T01:40:42.040Z,4.00
2023-01-10T01:45:48.744Z,4.00
2023-01-10T01:51:08.611Z,4.00
2023-01-10T01:56:16.870Z,4.00
2023-01-10T02:01:24.419Z,3.90
2023-01-10T02:06:30.040Z,3.90
2023-01-10T02:11:35.286Z,3.90
2023-01-10T02:16:40.555Z,3.90
2023-01-10T02:21:50.017Z,3.90
2023-01-10T02:27:17.859Z,3.80
2023-01-10T02:32:56.665Z,3.80
2023-01-10T02:37:59.780Z,3.80
2023-01-10T02:43:10.867Z,3.80
2023-01-10T02:48:19.263Z,3.70
2023-01-10T02:53:42.026Z,3.70
2023-01-10T02:58:50.247Z,3.60
2023-01-10T03:04:01.437Z,3.60
2023-01-10T03:09:39.932Z,3.60
2023-01-10T03:14:51.175Z,3.60
2023-01-10T03:19:59.875Z,3.50
2023-01-10T03:25:07.722Z,3.50
2023-01-10T03:30:21.896Z,3.60
2023-01-10T03:35:58.110Z,3.60
2023-01-10T03:41:12.155Z,3.60
2023-01-10T03:46:29.177Z,3.60
2023-01-10T03:51:37.783Z,3.60
2023-01-10T03:56:47.765Z,3.60
2023-01-10T04:01:53.687Z,3.60
2023-01-10T04:06:59.436Z,3.60
2023-01-10T04:12:04.719Z,3.60
2023-01-10T04:17:09.974Z,3.60
2023-01-10T04:22:15.602Z,3.60
2023-01-10T04:27:21.684Z,3.60
2023-01-10T04:32:26.981Z,3.60
2023-01-10T04:37:32.251Z,3.60
2023-01-10T04:42:37.555Z,3.60
2023-01-10T04:47:42.695Z,3.60
2023-01-10T04:52:49.058Z,3.60
2023-01-10T04:57:54.483Z,3.50
2023-01-10T05:03:00.104Z,3.50
2023-01-10T05:08:06.111Z,3.50
2023-01-10T05:13:11.421Z,3.50
2023-01-10T05:18:16.786Z,3.50
2023-01-10T05:23:22.038Z,3.50
2023-01-10T05:28:30.309Z,3.50
2023-01-10T05:33:36.866Z,3.40
2023-01-10T05:38:44.354Z,3.40
2023-01-10T05:43:49.533Z,3.40
2023-01-10T05:49:04.953Z,3.30
2023-01-10T05:54:10.682Z,3.30
2023-01-10T05:59:27.668Z,3.30
2023-01-10T06:04:23.984Z,3.30
2023-01-10T06:09:30.808Z,3.30
2023-01-10T06:14:36.031Z,3.10
2023-01-10T06:19:41.405Z,3.10
2023-01-10T06:24:46.968Z,3.10
2023-01-10T06:29:52.650Z,3.10
2023-01-10T06:34:58.068Z,3.10
2023-01-10T06:40:03.533Z,3.10
2023-01-10T06:45:18.468Z,3.10
2023-01-10T06:50:34.564Z,3.10
2023-01-10T06:55:50.966Z,3.10
2023-01-10T07:01:00.320Z,3.10
2023-01-10T07:06:10.376Z,3.00
2023-01-10T07:11:18.228Z,3.00
2023-01-10T07:16:29.757Z,3.00
2023-01-10T07:21:41.415Z,3.00
2023-01-10T07:26:56.639Z,3.10
2023-01-10T07:32:04.080Z,3.10
2023-01-10T07:37:12.571Z,3.10
2023-01-10T07:42:19.855Z,3.00
2023-01-10T07:47:25.701Z,2.90
2023-01-10T07:52:32.314Z,3.00
2023-01-10T07:57:42.433Z,3.00
2023-01-10T08:02:49.099Z,3.10
2023-01-10T08:07:59.941Z,3.10
2023-01-10T08:13:18.429Z,3.10
2023-01-10T08:18:22.315Z,3.10
2023-01-10T08:23:27.619Z,3.10
2023-01-10T08:28:33.906Z,3.10
2023-01-10T08:33:41.809Z,3.20
2023-01-10T08:38:50.617Z,3.20
2023-01-10T08:44:02.216Z,3.10
2023-01-10T08:49:11.387Z,3.20
2023-01-10T08:54:17.427Z,3.20
2023-01-10T08:59:25.953Z,3.30
2023-01-10T09:05:18.497Z,3.30
2023-01-10T09:10:23.432Z,3.30
2023-01-10T09:15:35.907Z,3.30
2023-01-10T09:20:48.383Z,3.30
2023-01-10T09:25:58.194Z,3.40
2023-01-10T09:31:07.962Z,3.50
2023-01-10T09:36:32.118Z,3.50
2023-01-10T09:42:20.141Z,3.60
2023-01-10T09:48:07.671Z,3.60
2023-01-10T09:53:26.317Z,3.60
2023-01-10T09:58:39.015Z,3.80
2023-01-10T10:04:03.947Z,3.90
2023-01-10T10:09:15.294Z,4.00
2023-01-10T10:14:35.610Z,4.00
2023-01-10T10:20:06.756Z,4.20
2023-01-10T10:25:33.006Z,4.30
2023-01-10T10:30:53.774Z,4.40
2023-01-10T10:36:07.707Z,4.40
2023-01-10T10:41:37.362Z,4.50
2023-01-10T10:46:42.786Z,4.50
2023-01-10T10:51:54.088Z,4.60
2023-01-10T10:57:00.641Z,4.60
2023-01-10T11:02:23.722Z,4.60
2023-01-10T11:07:37.851Z,4.70
2023-01-10T11:12:47.791Z,4.70
2023-01-10T11:17:56.450Z,4.70
2023-01-10T11:23:02.267Z,4.70
2023-01-10T11:28:11.134Z,4.70
2023-01-10T11:33:25.500Z,4.80
2023-01-10T11:38:32.028Z,4.90
2023-01-10T11:43:43.318Z,4.90
2023-01-10T11:49:06.693Z,4.90
2023-01-10T11:54:22.658Z,5.00
2023-01-10T11:59:30.365Z,5.10
2023-01-10T12:04:41.004Z,5.10
2023-01-10T12:10:06.123Z,5.20
2023-01-10T12:15:28.075Z,5.20
2023-01-10T12:20:43.851Z,5.20
2023-01-10T12:25:53.224Z,5.20
2023-01-10T12:31:02.935Z,5.30
2023-01-10T12:36:23.957Z,5.40
2023-01-10T12:42:09.333Z,5.40
2023-01-10T12:48:02.993Z,5.40
2023-01-10T12:53:35.082Z,5.50
2023-01-10T12:58:46.590Z,5.50
2023-01-10T13:03:59.786Z,5.60
2023-01-10T13:09:13.020Z,5.60
2023-01-10T13:14:22.799Z,5.60
2023-01-10T13:19:33.504Z,5.60
2023-01-10T13:24:47.580Z,5.70
2023-01-10T13:29:54.552Z,5.60
2023-01-10T13:35:22.662Z,5.70
2023-01-10T13:40:36.877Z,5.70
2023-01-10T13:45:53.798Z,5.70
2023-01-10T13:51:29.656Z,5.70
2023-01-10T13:56:44.044Z,5.70
2023-01-10T14:02:14.642Z,5.60
2023-01-10T14:07:54.751Z,5.60
2023-01-10T14:13:12.945Z,5.60
2023-01-10T14:18:22.140Z,5.60
2023-01-10T14:23:37.415Z,5.60
2023-01-10T14:28:51.131Z,5.60
2023-01-10T14:33:59.004Z,5.60
2023-01-10T14:39:07.311Z,5.60
2023-01-10T14:44:23.908Z,5.60
2023-01-10T14:49:38.873Z,5.50
2023-01-10T14:55:19.932Z,5.50
2023-01-10T15:00:39.170Z,5.60
2023-01-10T15:05:57.659Z,5.50
2023-01-10T15:11:22.566Z,5.60
2023-01-10T15:16:30.931Z,5.50
2023-01-10T15:21:46.864Z,5.50
2023-01-10T15:26:57.636Z,5.50
2023-01-10T15:32:31.424Z,5.50
2023-01-10T15:37:41.860Z,5.50
2023-01-10T15:42:47.256Z,5.50
2023-01-10T15:47:56.498Z,5.50
2023-01-10T15:53:08.540Z,5.50
2023-01-10T15:58:29.834Z,5.40
2023-01-10T16:04:01.633Z,5.40
2023-01-10T16:09:13.217Z,5.40
2023-01-10T16:14:23.449Z,5.40
2023-01-10T16:19:32.560Z,5.30
2023-01-10T16:24:40.525Z,5.30
2023-01-10T16:29:59.081Z,5.30
2023-01-10T16:35:07.450Z,5.30
2023-01-10T16:40:25.366Z,5.20
2023-01-10T16:45:57.745Z,5.30
2023-01-10T16:51:14.932Z,5.30
2023-01-10T16:56:27.339Z,5.20
2023-01-10T17:01:43.233Z,5.20
2023-01-10T17:06:57.625Z,5.20
2023-01-10T17:12:15.435Z,5.20
2023-01-10T17:17:37.598Z,5.10
2023-01-10T17:22:49.922Z,5.10
2023-01-10T17:28:02.374Z,5.00
2023-01-10T17:33:14.524Z,5.00
2023-01-10T17:44:01.743Z,4.90
2023-01-10T17:49:13.470Z,4.90
2023-01-10T17:54:20.978Z,4.90
2023-01-10T17:59:38.443Z,4.90
2023-01-10T18:04:47.484Z,4.80
2023-01-10T18:09:57.532Z,4.80
2023-01-10T18:15:04.518Z,4.80
2023-01-10T18:20:14.770Z,4.80
2023-01-10T18:25:50.924Z,4.70
2023-01-10T18:31:08.373Z,4.70
2023-01-10T18:36:21.980Z,4.70
2023-01-10T18:41:32.726Z,4.70
2023-01-10T18:46:44.870Z,4.70
2023-01-10T18:52:00.631Z,4.70
2023-01-10T18:57:33.311Z,4.70
2023-01-10T19:02:30.409Z,4.70
2023-01-10T19:07:42.058Z,4.70
2023-01-10T19:12:50.663Z,4.70
2023-01-10T19:17:59.737Z,4.70
2023-01-10T19:23:06.638Z,4.70
2023-01-10T19:28:12.549Z,4.80
2023-01-10T19:33:29.608Z,4.80
2023-01-10T19:38:41.719Z,4.90
2023-01-10T19:43:48.295Z,4.90
2023-01-10T19:48:57.385Z,4.90
2023-01-10T19:54:14.437Z,5.00
2023-01-10T19:59:20.324Z,5.00
2023-01-10T20:04:26.157Z,5.00
2023-01-10T20:09:39.129Z,5.00
2023-01-10T20:14:45.842Z,5.00
2023-01-10T20:19:55.424Z,4.90
2023-01-10T20:25:02.636Z,4.90
2023-01-10T20:30:16.411Z,4.90
2023-01-10T20:35:37.356Z,4.90
2023-01-10T20:40:52.938Z,4.90
2023-01-10T20:46:11.691Z,4.90
2023-01-10T20:51:22.265Z,4.80
2023-01-10T20:56:31.464Z,4.80
2023-01-10T21:01:39.800Z,4.80
2023-01-10T21:06:45.325Z,4.80
2023-01-10T21:12:02.172Z,4.80
2023-01-10T21:17:25.188Z,4.80
2023-01-10T21:22:45.034Z,4.70
2023-01-10T21:27:52.100Z,4.70
2023-01-10T21:33:01.015Z,4.70
2023-01-10T21:38:06.863Z,4.70
2023-01-10T21:43:12.318Z,4.60
2023-01-10T21:48:17.691Z,4.70
2023-01-10T21:53:23.211Z,4.60
2023-01-10T21:58:28.720Z,4.60
2023-01-10T22:03:34.018Z,4.60
2023-01-10T22:08:39.375Z,4.50
2023-01-10T22:13:44.836Z,4.50
2023-01-10T22:18:51.131Z,4.50
2023-01-10T22:23:56.467Z,4.40
2023-01-10T22:29:02.828Z,4.40
2023-01-10T22:34:08.890Z,4.30
2023-01-10T22:39:14.573Z,4.30
2023-01-10T22:44:22.901Z,4.30
2023-01-10T22:49:28.335Z,4.30
2023-01-10T22:54:33.656Z,4.30
2023-01-10T22:59:41.820Z,4.20
2023-01-10T23:04:47.247Z,4.10
2023-01-10T23:09:52.492Z,4.00
2023-01-10T23:14:57.914Z,3.70
2023-01-10T23:20:03.261Z,3.60
2023-01-10T23:25:08.815Z,3.50
2023-01-10T23:30:14.204Z,3.40
2023-01-10T23:35:19.693Z,3.40
2023-01-10T23:40:25.215Z,3.40
2023-01-10T23:45:30.544Z,3.50
2023-01-10T23:50:35.995Z,3.60
2023-01-10T23:55:41.515Z,3.70
